Time;durP1;ratioP1;P1;durP2;ratioP2;P2;SDS_P1;SDS_P2;PMS_P1;PMS_P2;Temp;Humidity;BMP_temperature;BMP_pressure;BME280_temperature;BME280_humidity;BME280_pressure;Samples;Min_cycle;Max_cycle;Signal;HPM_P1;HPM_P2
2023/02/10 00:01:54;;;;;;;;;;;;;;;;;;5049409;28;19932;-85
2023/02/10 00:04:20;;;;;;;;;;;;;;;1.31;100.00;66924.75;5048855;28;19974;-85
2023/02/10 00:06:45;;;;;;;;;;;;;;;1.22;100.00;66919.31;5047357;28;20007;-85
2023/02/10 00:09:12;;;;;;;;;;;;;;;1.15;100.00;66908.78;5050642;28;19924;-84
2023/02/10 00:11:56;;;;;;;;;;;;;;;;;;5048580;28;19929;-84
2023/02/10 00:14:21;;;;;;;;;;;;;;;1.11;100.00;66902.22;5044654;28;19921;-84
2023/02/10 00:16:48;;;;;;;;;;;;;;;1.16;100.00;66907.31;5048754;28;19936;-84
2023/02/10 00:19:14;;;;;;;;;;;;;;;1.02;100.00;66897.91;5050022;28;19933;-85
2023/02/10 00:21:39;;;;;;;;;;;;;;;1.05;100.00;66898.09;5041620;28;19925;-84
2023/02/10 00:24:04;;;;;;;;;;;;;;;1.06;100.00;66891.91;5044955;28;19974;-85
2023/02/10 00:26:30;;;;;;;;;;;;;;;0.99;100.00;66894.53;5045033;28;19944;-85
2023/02/10 00:28:55;;;;;;;;;;;;;;;1.01;100.00;66891.53;5049103;28;19921;-85
2023/02/10 00:31:21;;;;;;;;;;;;;;;0.98;100.00;66892.84;5050358;28;19975;-84
2023/02/10 00:33:46;;;;;;;;;;;;;;;;;;5045194;28;20416;-84
2023/02/10 00:36:12;;;;;;;;;;;;;;;0.83;100.00;66871.28;5048139;28;20590;-84
2023/02/10 00:38:38;;;;;;;;;;;;;;;0.70;100.00;66861.91;5047093;28;19929;-83
2023/02/10 00:41:14;;;;;;;;;;;;;;;0.66;100.00;66855.91;5042454;28;19929;-84
2023/02/10 00:43:39;;;;;;;;;;;;;;;0.60;100.00;66849.16;5045902;28;19963;-83
2023/02/10 00:46:05;;;;;;;;;;;;;;;0.65;100.00;66852.16;5048229;28;20351;-84
2023/02/10 00:48:30;;;;;;;;;;;;;;;0.62;100.00;66854.03;5049677;28;19920;-84
2023/02/10 00:50:56;;;;;;;;;;;;;;;0.66;100.00;66852.72;5047323;28;20044;-84
2023/02/10 00:53:21;;;;;;;;;;;;;;;0.59;100.00;66850.66;5039971;28;19959;-85
2023/02/10 00:55:46;;;;;;;;;;;;;;;0.63;100.00;66852.53;5044023;28;20012;-85
2023/02/10 00:58:11;;;;;;;;;;;;;;;0.60;100.00;66845.97;5047184;28;19920;-85
2023/02/10 01:00:37;;;;;;;;;;;;;;;;;;5047313;28;20047;-84
2023/02/10 01:03:02;;;;;;;;;;;;;;;0.55;100.00;66840.91;5041847;28;19924;-84
2023/02/10 01:05:27;;;;;;;;;;;;;;;0.47;100.00;66834.53;5049027;28;20439;-84
2023/02/10 01:07:52;;;;;;;;;;;;;;;0.53;100.00;66838.66;5047204;28;19955;-85
2023/02/10 01:10:18;;;;;;;;;;;;;;;0.59;100.00;66844.84;5047862;28;19944;-84
2023/02/10 01:12:43;;;;;;;;;;;;;;;0.52;100.00;66840.16;5044518;28;19928;-83
2023/02/10 01:15:09;;;;;;;;;;;;;;;0.47;100.00;66834.53;5040390;28;20030;-84
2023/02/10 01:17:34;;;;;;;;;;;;;;;0.43;100.00;66827.97;5044687;28;19925;-83
2023/02/10 01:19:59;;;;;;;;;;;;;;;0.40;100.00;66827.22;5044051;28;19932;-84
2023/02/10 01:22:24;;;;;;;;;;;;;;;0.37;100.00;66820.66;5044697;28;19921;-83
2023/02/10 01:24:50;;;;;;;;;;;;;;;0.32;100.00;66820.28;5047015;28;19921;-85
2023/02/10 01:27:15;;;;;;;;;;;;;;;;;;5043456;28;19920;-83
2023/02/10 01:29:40;;;;;;;;;;;;;;;;;;5046558;28;19924;-84
2023/02/10 01:32:05;;;;;;;;;;;;;;;0.42;100.00;66829.47;5047817;28;19920;-83
2023/02/10 01:34:30;;;;;;;;;;;;;;;0.44;100.00;66829.09;5047510;28;20015;-83
2023/02/10 01:36:56;;;;;;;;;;;;;;;0.36;100.00;66822.72;5046876;28;20059;-83
2023/02/10 01:39:21;;;;;;;;;;;;;;;0.37;100.00;66820.66;5045156;28;19927;-83
2023/02/10 01:41:46;;;;;;;;;;;;;;;0.39;100.00;66822.91;5044478;28;19970;-84
2023/02/10 01:44:21;;;;;;;;;;;;;;;0.40;100.00;66827.22;5045752;28;19955;-83
2023/02/10 01:46:47;;;;;;;;;;;;;;;0.33;100.00;66818.78;5046112;28;19967;-83
2023/02/10 01:49:14;;;;;;;;;;;;;;;0.39;100.00;66822.91;5050254;28;19921;-84
2023/02/10 01:51:42;;;;;;;;;;;;;;;0.40;100.00;66826.66;5044385;28;19952;-85
2023/02/10 01:54:12;;;;;;;;;;;;;;;0.41;100.00;66828.34;5046161;28;20007;-83
2023/02/10 01:56:38;;;;;;;;;;;;;;;0.40;100.00;66827.22;5047179;28;19925;-84
2023/02/10 01:59:03;;;;;;;;;;;;;;;0.46;100.00;66830.78;5049208;28;19929;-83
2023/02/10 02:01:28;;;;;;;;;;;;;;;0.40;100.00;66831.88;5047618;28;19921;-84
2023/02/10 02:03:53;;;;;;;;;;;;;;;0.45;100.00;66830.22;5047231;28;19972;-83
2023/02/10 02:06:19;;;;;;;;;;;;;;;0.38;100.00;66822.34;5043168;28;19960;-83
2023/02/10 02:08:44;;;;;;;;;;;;;;;0.36;100.00;66825.34;5040577;28;19922;-83
2023/02/10 02:11:21;;;;;;;;;;;;;;;0.44;100.00;66831.72;5045100;28;20008;-83
2023/02/10 02:13:53;;;;;;;;;;;;;;;0.48;100.00;66832.47;5045732;28;19928;-83
2023/02/10 02:16:38;;;;;;;;;;;;;;;0.36;100.00;66819.53;5041052;28;20008;-83
2023/02/10 02:19:22;;;;;;;;;;;;;;;0.38;100.00;66821.78;5011358;28;19928;-82
2023/02/10 02:21:47;;;;;;;;;;;;;;;0.44;100.00;66828.53;5044067;28;19978;-83
2023/02/10 02:24:12;;;;;;;;;;;;;;;0.48;100.00;66835.09;5044044;28;19924;-83
2023/02/10 02:26:47;;;;;;;;;;;;;;;0.54;100.00;66841.84;5044914;28;19921;-84
2023/02/10 02:32:20;;;;;;;;;;;;;;;0.58;100.00;66846.91;5056653;28;19928;-82
2023/02/10 02:34:55;;;;;;;;;;;;;;;0.63;100.00;66855.16;5043587;28;19932;-82
2023/02/10 02:37:22;;;;;;;;;;;;;;;0.72;100.00;66858.91;5046964;28;20338;-83
2023/02/10 02:39:51;;;;;;;;;;;;;;;0.73;100.00;66862.66;5043889;28;19921;-83
2023/02/10 02:42:16;;;;;;;;;;;;;;;;;;5041785;28;19925;-83
2023/02/10 02:44:44;;;;;;;;;;;;;;;0.70;100.00;66861.91;5044266;28;19925;-83
2023/02/10 02:47:17;;;;;;;;;;;;;;;0.67;100.00;66854.41;5046508;28;19925;-84
2023/02/10 02:49:49;;;;;;;;;;;;;;;0.66;100.00;66853.28;5045218;28;20394;-83
2023/02/10 02:52:19;;;;;;;;;;;;;;;0.49;100.00;66836.78;5043606;28;19979;-83
2023/02/10 02:55:10;;;;;;;;;;;;;;;0.58;100.00;66846.34;5045755;28;19947;-84
2023/02/10 02:57:35;;;;;;;;;;;;;;;0.35;100.00;66821.03;5010439;28;19921;-85
2023/02/10 03:00:04;;;;;;;;;;;;;;;0.32;100.00;66818.22;5038415;28;19982;-84
2023/02/10 03:02:30;;;;;;;;;;;;;;;0.26;100.00;66814.09;5046671;28;19924;-83
2023/02/10 03:04:55;;;;;;;;;;;;;;;;;;5044221;28;19921;-82
2023/02/10 03:07:21;;;;;;;;;;;;;;;0.31;100.00;66819.16;5049491;28;19923;-82
2023/02/10 03:09:46;;;;;;;;;;;;;;;0.45;100.00;66830.22;5048434;28;19991;-81
2023/02/10 03:12:12;;;;;;;;;;;;;;;0.39;100.00;66825.53;5047574;28;19927;-83
2023/02/10 03:14:38;;;;;;;;;;;;;;;0.32;100.00;66818.22;5044615;28;19932;-81
2023/02/10 03:17:03;;;;;;;;;;;;;;;0.34;100.00;66820.47;5048974;28;19948;-83
2023/02/10 03:19:28;;;;;;;;;;;;;;;0.36;100.00;66819.53;5049745;28;19931;-83
2023/02/10 03:21:53;;;;;;;;;;;;;;;0.41;100.00;66827.78;5048398;28;20309;-83
2023/02/10 03:24:19;;;;;;;;;;;;;;;0.35;100.00;66821.03;5049620;28;19960;-83
2023/02/10 03:26:45;;;;;;;;;;;;;;;0.38;100.00;66824.41;5047765;28;19947;-82
2023/02/10 03:29:11;;;;;;;;;;;;;;;0.40;100.00;66824.03;5050843;28;19921;-82
2023/02/10 03:31:36;;;;;;;;;;;;;;;0.40;100.00;66824.59;5049371;28;19928;-82
2023/02/10 03:34:01;;;;;;;;;;;;;;;;;;5048151;28;19925;-83
2023/02/10 03:36:27;;;;;;;;;;;;;;;0.50;100.00;66840.53;5046016;28;19959;-82
2023/02/10 03:38:52;;;;;;;;;;;;;;;0.45;100.00;66832.28;5047896;28;19936;-81
2023/02/10 03:41:17;;;;;;;;;;;;;;;0.47;100.00;66833.97;5050769;28;19924;-84
2023/02/10 03:43:42;;;;;;;;;;;;;;;0.49;100.00;66833.59;5049120;28;20397;-83
2023/02/10 03:46:08;;;;;;;;;;;;;;;0.47;100.00;66831.34;5049238;28;19921;-83
2023/02/10 03:48:33;;;;;;;;;;;;;;;0.50;100.00;66837.91;5049068;28;20050;-83
2023/02/10 03:50:58;;;;;;;;;;;;;;;;;;5049011;28;20402;-84
2023/02/10 03:53:24;;;;;;;;;;;;;;;0.53;100.00;66838.66;5050280;28;19917;-81
2023/02/10 03:55:49;;;;;;;;;;;;;;;0.53;100.00;66838.66;5046966;28;19921;-83
2023/02/10 03:58:14;;;;;;;;;;;;;;;0.52;100.00;66836.97;5050790;28;19921;-81
2023/02/10 04:00:40;;;;;;;;;;;;;;;0.52;100.00;66836.97;5047920;28;20004;-83
2023/02/10 04:03:05;;;;;;;;;;;;;;;0.54;100.00;66841.84;5049140;28;19916;-84
2023/02/10 04:05:30;;;;;;;;;;;;;;;;;;5046001;28;19924;-82
2023/02/10 04:07:55;;;;;;;;;;;;;;;0.54;100.00;66839.22;5044725;28;20404;-83
2023/02/10 04:10:21;;;;;;;;;;;;;;;0.55;100.00;66842.97;5045562;28;19930;-84
2023/02/10 04:12:46;;;;;;;;;;;;;;;0.54;100.00;66839.78;5048923;28;19921;-82
2023/02/10 04:15:12;;;;;;;;;;;;;;;0.56;100.00;66842.03;5046505;28;19928;-83
2023/02/10 04:17:37;;;;;;;;;;;;;;;0.57;100.00;66843.16;5048112;28;20027;-82
2023/02/10 04:20:02;;;;;;;;;;;;;;;0.57;100.00;66842.59;5047080;28;19920;-83
2023/02/10 04:22:27;;;;;;;;;;;;;;;0.56;100.00;66842.03;5048476;28;20002;-84
2023/02/10 04:24:52;;;;;;;;;;;;;;;0.59;100.00;66845.41;5048166;28;19994;-82
2023/02/10 04:27:18;;;;;;;;;;;;;;;0.60;100.00;66846.53;5044565;28;19929;-84
2023/02/10 04:29:43;;;;;;;;;;;;;;;0.60;100.00;66851.75;5048172;28;19931;-82
2023/02/10 04:32:08;;;;;;;;;;;;;;;0.60;100.00;66845.97;5047971;28;19975;-83
2023/02/10 04:34:34;;;;;;;;;;;;;;;0.60;100.00;66849.16;5044213;28;19924;-82
2023/02/10 04:36:59;;;;;;;;;;;;;;;0.62;100.00;66850.84;5047444;28;19932;-83
2023/02/10 04:39:24;;;;;;;;;;;;;;;0.60;100.00;66840.72;5049851;28;19917;-84
2023/02/10 04:41:49;;;;;;;;;;;;;;;0.61;100.00;66847.66;5047147;28;19925;-82
2023/02/10 04:44:15;;;;;;;;;;;;;;;0.62;100.00;66848.78;5046016;28;19963;-83
2023/02/10 04:46:40;;;;;;;;;;;;;;;0.60;100.00;66849.16;5046221;28;19921;-82
2023/02/10 04:49:05;;;;;;;;;;;;;;;0.61;100.00;66847.66;5046082;28;19917;-82
2023/02/10 04:51:30;;;;;;;;;;;;;;;;;;5042567;28;20340;-83
2023/02/10 04:53:55;;;;;;;;;;;;;;;0.61;100.00;66850.28;5047285;28;20002;-83
2023/02/10 04:56:21;;;;;;;;;;;;;;;;;;5049128;28;19988;-83
2023/02/10 04:58:46;;;;;;;;;;;;;;;0.59;100.00;66845.41;5049774;28;19936;-82
2023/02/10 05:01:11;;;;;;;;;;;;;;;0.59;100.00;66845.41;5054255;28;19976;-85
2023/02/10 05:03:36;;;;;;;;;;;;;;;0.58;100.00;66849.53;5058065;28;19931;-82
2023/02/10 05:06:07;;;;;;;;;;;;;;;0.58;100.00;66843.72;5061896;28;19924;-82
2023/02/10 05:08:32;;;;;;;;;;;;;;;0.55;100.00;66843.53;5052387;28;19920;-83
2023/02/10 05:10:57;;;;;;;;;;;;;;;0.55;100.00;66846.16;5047374;28;19924;-85
2023/02/10 05:13:23;;;;;;;;;;;;;;;;;;5036616;28;20422;-83
2023/02/10 05:15:48;;;;;;;;;;;;;;;0.54;100.00;66839.78;5046638;28;19920;-83
2023/02/10 05:18:13;;;;;;;;;;;;;;;0.51;100.00;66839.03;5051328;28;20301;-83
2023/02/10 05:20:38;;;;;;;;;;;;;;;0.50;100.00;66835.28;5048421;28;19928;-83
2023/02/10 05:23:04;;;;;;;;;;;;;;;0.48;100.00;66833.03;5050872;28;20292;-84
2023/02/10 05:25:29;;;;;;;;;;;;;;;0.48;100.00;66837.72;5043639;28;20075;-83
2023/02/10 05:27:54;;;;;;;;;;;;;;;0.40;100.00;66824.03;5043538;28;19967;-82
2023/02/10 05:30:19;;;;;;;;;;;;;;;0.35;100.00;66821.03;5046000;28;19971;-82
2023/02/10 05:32:45;;;;;;;;;;;;;;;0.35;100.00;66821.59;5050721;28;19917;-83
2023/02/10 05:35:10;;;;;;;;;;;;;;;0.34;100.00;66823.06;5037411;28;19985;-83
2023/02/10 05:37:35;;;;;;;;;;;;;;;;;;5046166;28;19917;-83
2023/02/10 05:40:00;;;;;;;;;;;;;;;0.31;100.00;66813.91;5037883;28;19924;-83
2023/02/10 05:42:26;;;;;;;;;;;;;;;;;;5051510;28;19967;-82
2023/02/10 05:44:51;;;;;;;;;;;;;;;0.30;100.00;66812.78;5047653;28;20389;-84
2023/02/10 05:47:19;;;;;;;;;;;;;;;0.28;100.00;66813.72;5049245;28;19921;-83
2023/02/10 05:49:44;;;;;;;;;;;;;;;0.27;100.00;66815.22;5049074;28;19921;-83
2023/02/10 05:52:09;;;;;;;;;;;;;;;0.24;100.00;66806.03;5048885;28;20167;-84
2023/02/10 05:54:35;;;;;;;;;;;;;;;0.22;100.00;66804.34;5051079;28;20030;-83
2023/02/10 05:57:00;;;;;;;;;;;;;;;0.19;100.00;66801.53;5049795;28;19959;-83
2023/02/10 05:59:26;;;;;;;;;;;;;;;0.19;100.00;66801.53;5048953;28;19948;-84
2023/02/10 06:01:51;;;;;;;;;;;;;;;0.20;100.00;66804.72;5045533;28;19925;-84
2023/02/10 06:04:16;;;;;;;;;;;;;;;0.22;100.00;66804.91;5041019;28;20306;-84
2023/02/10 06:06:41;;;;;;;;;;;;;;;0.18;100.00;66799.88;5044006;28;19960;-82
2023/02/10 06:09:07;;;;;;;;;;;;;;;0.22;100.00;66799.69;5041519;28;19920;-82
2023/02/10 06:11:32;;;;;;;;;;;;;;;0.22;100.00;66807.53;5039669;28;20374;-82
2023/02/10 06:13:57;;;;;;;;;;;;;;;0.26;100.00;66810.91;5039853;28;19924;-82
2023/02/10 06:16:23;;;;;;;;;;;;;;;0.27;100.00;66809.97;5032816;28;19917;-83
2023/02/10 06:18:48;;;;;;;;;;;;;;;0.28;100.00;66810.53;5036868;28;20387;-83
2023/02/10 06:21:14;;;;;;;;;;;;;;;0.30;100.00;66807.56;5044329;28;20292;-82
2023/02/10 06:23:40;;;;;;;;;;;;;;;0.30;100.00;66812.78;5030397;28;19921;-82
2023/02/10 06:26:05;;;;;;;;;;;;;;;0.30;100.00;66815.97;5046922;28;19928;-83
2023/02/10 06:28:30;;;;;;;;;;;;;;;0.31;100.00;66813.91;5046619;28;19921;-82
2023/02/10 06:30:55;;;;;;;;;;;;;;;0.31;100.00;66813.91;5048641;28;20390;-83
2023/02/10 06:33:21;;;;;;;;;;;;;;;0.34;100.00;66823.06;5046515;28;20386;-83
2023/02/10 06:35:47;;;;;;;;;;;;;;;0.35;100.00;66823.66;5044673;28;20337;-82
2023/02/10 06:38:12;;;;;;;;;;;;;;;0.35;100.00;66824.22;5046160;28;20382;-82
2023/02/10 06:40:37;;;;;;;;;;;;;;;;;;5046316;28;19967;-83
2023/02/10 06:43:02;;;;;;;;;;;;;;;0.38;100.00;66824.41;5046365;28;19916;-83
2023/02/10 06:45:28;;;;;;;;;;;;;;;0.38;100.00;66821.78;5031933;28;19917;-83
2023/02/10 06:47:53;;;;;;;;;;;;;;;0.41;100.00;66825.16;5043645;28;19920;-82
2023/02/10 06:50:19;;;;;;;;;;;;;;;0.40;100.00;66824.03;5044819;28;19921;-82
2023/02/10 06:52:45;;;;;;;;;;;;;;;0.41;100.00;66825.16;5039841;28;19921;-82
2023/02/10 06:55:10;;;;;;;;;;;;;;;0.44;100.00;66828.53;5044831;28;19943;-82
2023/02/10 06:57:36;;;;;;;;;;;;;;;0.43;100.00;66827.41;5046427;28;20002;-83
2023/02/10 07:00:07;;;;;;;;;;;;;;;0.40;100.00;66826.66;5040363;28;20382;-83
2023/02/10 07:02:32;;;;;;;;;;;;;;;0.41;100.00;66830.97;5043275;28;19986;-83
2023/02/10 07:04:57;;;;;;;;;;;;;;;0.42;100.00;66826.84;5040845;28;19932;-82
2023/02/10 07:07:23;;;;;;;;;;;;;;;0.44;100.00;66831.16;5040395;28;19966;-83
2023/02/10 07:09:48;;;;;;;;;;;;;;;0.44;100.00;66831.16;5043376;28;19952;-82
2023/02/10 07:12:13;;;;;;;;;;;;;;;0.45;100.00;66835.44;5045722;28;20508;-82
2023/02/10 07:14:38;;;;;;;;;;;;;;;0.44;100.00;66828.53;5045806;28;20518;-82
2023/02/10 07:17:04;;;;;;;;;;;;;;;0.47;100.00;66833.97;5040120;28;19921;-83
2023/02/10 07:19:30;;;;;;;;;;;;;;;0.44;100.00;66831.16;5045782;28;19927;-82
2023/02/10 07:21:56;;;;;;;;;;;;;;;0.44;100.00;66833.78;5042116;28;19925;-81
2023/02/10 07:24:21;;;;;;;;;;;;;;;0.48;100.00;66835.09;5047735;28;19975;-81
2023/02/10 07:26:46;;;;;;;;;;;;;;;0.48;100.00;66832.47;5043410;28;19916;-82
2023/02/10 07:29:11;;;;;;;;;;;;;;;0.45;100.00;66830.22;5043493;28;20016;-82
2023/02/10 07:31:36;;;;;;;;;;;;;;;0.45;100.00;66832.28;5042867;28;20011;-82
2023/02/10 07:34:02;;;;;;;;;;;;;;;0.42;100.00;66826.84;5041635;28;20397;-82
2023/02/10 07:36:28;;;;;;;;;;;;;;;0.44;100.00;66831.16;5042886;28;20344;-81
2023/02/10 07:38:53;;;;;;;;;;;;;;;0.43;100.00;66832.63;5042553;28;19936;-82
2023/02/10 07:41:18;;;;;;;;;;;;;;;0.44;100.00;66831.16;5041438;28;19925;-83
2023/02/10 07:43:43;;;;;;;;;;;;;;;0.45;100.00;66829.66;5046244;28;20015;-82
2023/02/10 07:46:09;;;;;;;;;;;;;;;0.45;100.00;66824.97;5045371;28;19924;-83
2023/02/10 07:48:34;;;;;;;;;;;;;;;0.42;100.00;66832.06;5045146;28;19925;-82
2023/02/10 07:50:59;;;;;;;;;;;;;;;0.39;100.00;66826.09;5039628;28;19921;-83
2023/02/10 07:53:24;;;;;;;;;;;;;;;0.36;100.00;66822.72;5045089;28;20015;-83
2023/02/10 07:55:49;;;;;;;;;;;;;;;0.37;100.00;66820.66;5043545;28;19959;-83
2023/02/10 07:58:15;;;;;;;;;;;;;;;;;;5046937;28;19921;-83
2023/02/10 08:00:40;;;;;;;;;;;;;;;0.34;100.00;66817.84;5048805;28;19985;-83
2023/02/10 08:03:05;;;;;;;;;;;;;;;0.34;100.00;66819.91;5047458;28;19931;-81
2023/02/10 08:05:31;;;;;;;;;;;;;;;0.33;100.00;66816.72;5046589;28;20417;-82
2023/02/10 08:07:56;;;;;;;;;;;;;;;;;;5039973;28;19978;-83
2023/02/10 08:10:21;;;;;;;;;;;;;;;0.38;100.00;66824.41;5048319;28;20017;-82
2023/02/10 08:12:47;;;;;;;;;;;;;;;0.34;100.00;66819.91;5048548;28;19925;-82
2023/02/10 08:15:12;;;;;;;;;;;;;;;0.36;100.00;66819.53;5045848;28;19931;-82
2023/02/10 08:17:38;;;;;;;;;;;;;;;0.38;100.00;66824.41;5046462;28;20008;-83
2023/02/10 08:20:04;;;;;;;;;;;;;;;0.38;100.00;66821.78;5047524;28;20536;-82
2023/02/10 08:22:29;;;;;;;;;;;;;;;0.37;100.00;66831.69;5047339;28;19924;-82
2023/02/10 08:24:54;;;;;;;;;;;;;;;0.36;100.00;66819.53;5047666;28;20036;-82
2023/02/10 08:27:19;;;;;;;;;;;;;;;0.38;100.00;66822.34;5047393;28;19928;-82
2023/02/10 08:29:45;;;;;;;;;;;;;;;0.40;100.00;66824.59;5045199;28;19921;-82
2023/02/10 08:32:12;;;;;;;;;;;;;;;0.39;100.00;66823.47;5048401;28;20383;-84
2023/02/10 08:34:38;;;;;;;;;;;;;;;0.42;100.00;66832.06;5044033;28;19921;-82
2023/02/10 08:37:03;;;;;;;;;;;;;;;0.46;100.00;66833.41;5045770;28;19975;-82
2023/02/10 08:39:29;;;;;;;;;;;;;;;0.48;100.00;66832.47;5050322;28;19923;-83
2023/02/10 08:41:54;;;;;;;;;;;;;;;0.51;100.00;66838.47;5043827;28;19975;-84
2023/02/10 08:44:20;;;;;;;;;;;;;;;;;;5045858;28;19921;-83
2023/02/10 08:46:45;;;;;;;;;;;;;;;0.50;100.00;66837.91;5040667;28;19921;-84
2023/02/10 08:49:10;;;;;;;;;;;;;;;0.52;100.00;66845.41;5048182;28;20378;-83
2023/02/10 08:51:38;;;;;;;;;;;;;;;0.54;100.00;66842.41;5048119;28;19964;-84
2023/02/10 08:54:04;;;;;;;;;;;;;;;0.58;100.00;66843.72;5044713;28;19921;-84
2023/02/10 08:56:29;;;;;;;;;;;;;;;0.62;100.00;66848.78;5046359;28;19970;-84
2023/02/10 08:58:54;;;;;;;;;;;;;;;;;;5047678;28;20548;-84
2023/02/10 09:01:21;;;;;;;;;;;;;;;0.67;100.00;66857.03;5048071;28;20011;-84
2023/02/10 09:03:46;;;;;;;;;;;;;;;0.71;100.00;66860.41;5046778;28;19928;-84
2023/02/10 09:06:12;;;;;;;;;;;;;;;0.72;100.00;66861.53;5048261;28;19921;-85
2023/02/10 09:08:37;;;;;;;;;;;;;;;0.76;100.00;66869.22;5045801;28;19925;-84
2023/02/10 09:11:05;;;;;;;;;;;;;;;0.81;100.00;66869.03;5046352;28;20522;-84
2023/02/10 09:13:30;;;;;;;;;;;;;;;0.83;100.00;66876.53;5048402;28;19920;-84
2023/02/10 09:15:55;;;;;;;;;;;;;;;0.88;100.00;66877.47;5046655;28;20334;-83
2023/02/10 09:18:20;;;;;;;;;;;;;;;0.92;100.00;66881.41;5049140;28;20183;-83
2023/02/10 09:20:46;;;;;;;;;;;;;;;0.98;100.00;66888.16;5048682;28;19925;-83
2023/02/10 09:23:11;;;;;;;;;;;;;;;;;;5050321;28;19924;-85
2023/02/10 09:25:36;;;;;;;;;;;;;;;1.02;100.00;66895.28;5049696;28;19917;-84
2023/02/10 09:28:01;;;;;;;;;;;;;;;1.04;100.00;66900.16;5050184;28;20007;-84
2023/02/10 09:30:27;;;;;;;;;;;;;;;1.03;100.00;66895.84;5049490;28;19980;-83
2023/02/10 09:32:52;;;;;;;;;;;;;;;1.02;100.00;66892.66;5048181;28;19960;-83
2023/02/10 09:35:18;;;;;;;;;;;;;;;;;;5051761;28;19920;-83
2023/02/10 09:37:43;;;;;;;;;;;;;;;1.16;100.00;66907.31;5048526;28;20193;-85
2023/02/10 09:40:08;;;;;;;;;;;;;;;;;;5049845;28;20011;-85
2023/02/10 09:42:59;;;;;;;;;;;;;;;1.32;100.00;66927.91;5050039;28;20431;-84
2023/02/10 09:45:26;;;;;;;;;;;;;;;1.31;100.00;66926.81;5055987;28;20450;-84
2023/02/10 09:47:52;;;;;;;;;;;;;;;;;;5048433;28;19917;-84
2023/02/10 09:50:17;;;;;;;;;;;;;;;1.34;100.00;66930.19;5048148;28;20009;-84
2023/02/10 09:52:43;;;;;;;;;;;;;;;1.39;100.00;66933.19;5035566;28;20507;-85
2023/02/10 09:55:26;;;;;;;;;;;;;;;1.41;100.00;66938.06;5048242;28;19931;-84
2023/02/10 09:57:52;;;;;;;;;;;;;;;;;;5038004;28;19936;-85
2023/02/10 10:00:32;;;;;;;;;;;;;;;1.68;100.00;66964.72;5062492;28;19924;-85
2023/02/10 10:02:57;;;;;;;;;;;;;;;;;;5049489;28;19970;-86
2023/02/10 10:05:41;;;;;;;;;;;;;;;1.75;100.00;66967.34;5047718;28;19920;-84
2023/02/10 10:08:06;;;;;;;;;;;;;;;;;;5043630;28;19928;-84
2023/02/10 10:10:40;;;;;;;;;;;;;;;1.68;100.00;66964.72;5047060;28;19921;-86
2023/02/10 10:13:12;;;;;;;;;;;;;;;1.74;100.00;66971.47;5046298;28;19928;-85
2023/02/10 10:15:42;;;;;;;;;;;;;;;1.75;100.00;66973.16;5042757;28;19924;-86
2023/02/10 10:18:18;;;;;;;;;;;;;;;1.85;100.00;66983.88;5045397;28;20405;-85
2023/02/10 10:20:51;;;;;;;;;;;;;;;1.93;100.00;66998.13;5043273;28;20048;-84
2023/02/10 10:23:35;;;;;;;;;;;;;;;2.02;100.00;67003.00;5042072;28;19921;-84
2023/02/10 10:26:00;;;;;;;;;;;;;;;2.02;100.00;67007.69;5041850;28;19956;-84
2023/02/10 10:28:31;;;;;;;;;;;;;;;1.99;100.00;66999.06;5047384;28;19959;-85
2023/02/10 10:31:08;;;;;;;;;;;;;;;2.01;100.00;67001.91;5045162;28;19920;-85
2023/02/10 10:33:38;;;;;;;;;;;;;;;2.03;100.00;67004.13;5047052;28;19928;-85
2023/02/10 10:36:03;;;;;;;;;;;;;;;2.05;100.00;67008.44;5041030;28;19928;-84
2023/02/10 10:38:28;;;;;;;;;;;;;;;;;;5045052;28;20313;-85
2023/02/10 10:40:56;;;;;;;;;;;;;;;2.29;100.00;67034.91;5043769;28;19948;-85
2023/02/10 10:43:24;;;;;;;;;;;;;;;2.40;100.00;67044.13;5043189;28;19925;-84
2023/02/10 10:45:52;;;;;;;;;;;;;;;2.34;100.00;67040.56;5045649;28;19927;-85
2023/02/10 10:48:24;;;;;;;;;;;;;;;2.35;100.00;67044.31;5046795;28;20464;-85
2023/02/10 10:50:49;;;;;;;;;;;;;;;2.51;100.00;67051.28;5045784;28;19927;-84
2023/02/10 10:53:44;;;;;;;;;;;;;;;2.50;100.00;67055.38;5045226;28;19920;-84
2023/02/10 10:56:15;;;;;;;;;;;;;;;2.54;100.00;67064.59;5028113;28;19935;-85
2023/02/10 10:58:43;;;;;;;;;;;;;;;2.56;100.00;67061.59;5047588;28;19923;-86
2023/02/10 11:01:08;;;;;;;;;;;;;;;;;;5044706;28;20445;-84
2023/02/10 11:03:34;;;;;;;;;;;;;;;2.46;100.00;67053.53;5047048;28;19963;-85
2023/02/10 11:05:59;;;;;;;;;;;;;;;2.36;100.00;67040.19;5045214;28;19921;-85
2023/02/10 11:08:27;;;;;;;;;;;;;;;2.32;100.00;67035.69;5045607;28;20024;-84
2023/02/10 11:10:57;;;;;;;;;;;;;;;2.21;100.00;67023.28;5043915;28;19917;-85
2023/02/10 11:13:23;;;;;;;;;;;;;;;;;;5042487;28;19921;-85
2023/02/10 11:15:48;;;;;;;;;;;;;;;;;;5046322;28;20298;-84
2023/02/10 11:18:18;;;;;;;;;;;;;;;2.36;100.00;67040.19;5046224;28;20333;-83
2023/02/10 11:20:43;;;;;;;;;;;;;;;;;;5045006;28;20541;-86
2023/02/10 11:23:15;;;;;;;;;;;;;;;2.38;100.00;67041.88;5047040;28;20317;-85
2023/02/10 11:25:41;;;;;;;;;;;;;;;2.40;100.00;67044.69;5042588;28;19924;-83
2023/02/10 11:28:06;;;;;;;;;;;;;;;;;;5047595;28;19920;-84
2023/02/10 11:30:31;;;;;;;;;;;;;;;;;;5049637;28;19962;-84
2023/02/10 11:32:57;;;;;;;;;;;;;;;2.63;100.00;67064.78;5049040;28;19927;-86
2023/02/10 11:35:23;;;;;;;;;;;;;;;2.60;100.00;67066.66;5050480;28;20290;-84
2023/02/10 11:37:48;;;;;;;;;;;;;;;;;;5048538;28;19974;-84
2023/02/10 11:40:19;;;;;;;;;;;;;;;2.59;100.00;67059.72;5050910;28;19929;-84
2023/02/10 11:42:52;;;;;;;;;;;;;;;2.54;100.00;67061.97;5055207;28;19946;-85
2023/02/10 11:45:22;;;;;;;;;;;;;;;2.66;100.00;67073.44;5058833;28;21088;-83
2023/02/10 11:47:47;;;;;;;;;;;;;;;2.71;100.00;67078.50;5050825;28;19921;-83
2023/02/10 11:50:12;;;;;;;;;;;;;;;;;;5057792;28;19927;-82
2023/02/10 11:52:37;;;;;;;;;;;;;;;;;;5054292;28;19944;-84
2023/02/10 11:55:02;;;;;;;;;;;;;;;3.12;100.00;67124.16;5049027;28;19931;-83
2023/02/10 12:00:19;;;;;;;;;;;;;;;3.14;100.00;67125.84;5042780;28;19982;-84
2023/02/10 12:02:44;;;;;;;;;;;;;;;;;;5046944;28;20309;-83
2023/02/10 12:05:09;;;;;;;;;;;;;;;;;;5051098;28;19921;-83
2023/02/10 12:07:34;;;;;;;;;;;;;;;;;;5050453;28;19925;-82
2023/02/10 12:10:14;;;;;;;;;;;;;;;3.36;100.00;67153.28;5050920;28;19920;-84
2023/02/10 12:12:43;;;;;;;;;;;;;;;3.57;100.00;67173.22;5048387;28;19928;-85
2023/02/10 12:15:08;;;;;;;;;;;;;;;;;;5048869;28;19923;-84
2023/02/10 12:17:36;;;;;;;;;;;;;;;3.51;100.00;67172.28;5039292;28;19996;-84
2023/02/10 12:20:02;;;;;;;;;;;;;;;;;;5049025;28;19979;-83
2023/02/10 12:22:27;;;;;;;;;;;;;;;;;;5047481;28;19921;-83
2023/02/10 12:25:06;;;;;;;;;;;;;;;3.72;100.00;67192.78;5048908;28;19924;-85
2023/02/10 12:27:44;;;;;;;;;;;;;;;3.90;100.00;67212.50;5047713;28;20003;-83
2023/02/10 12:30:18;;;;;;;;;;;;;;;3.78;100.00;67196.91;5038369;28;19991;-84
2023/02/10 12:33:02;;;;;;;;;;;;;;;3.91;100.00;67205.19;5049656;28;19963;-83
2023/02/10 12:35:28;;;;;;;;;;;;;;;;;;5042935;28;19921;-84
2023/02/10 12:37:54;;;;;;;;;;;;;;;;;;5047368;28;20466;-84
2023/02/10 12:40:19;;;;;;;;;;;;;;;;;;5051180;28;19947;-85
2023/02/10 12:42:44;;;;;;;;;;;;;;;;;;5050411;28;19928;-84
2023/02/10 12:45:17;;;;;;;;;;;;;;;4.10;100.00;67231.31;5049076;28;20393;-84
2023/02/10 12:47:42;;;;;;;;;;;;;;;4.29;100.00;67252.78;5048985;28;20447;-83
2023/02/10 12:50:07;;;;;;;;;;;;;;;;;;5049339;28;19916;-85
2023/02/10 12:52:49;;;;;;;;;;;;;;;4.60;100.00;67287.19;5050376;28;20487;-85
2023/02/10 12:55:27;;;;;;;;;;;;;;;4.69;100.00;67297.38;5026889;28;20426;-85
2023/02/10 12:57:52;;;;;;;;;;;;;;;;;;5046930;28;19923;-83
2023/02/10 13:00:17;;;;;;;;;;;;;;;;;;5049309;28;19999;-85
2023/02/10 13:02:42;;;;;;;;;;;;;;;;;;5047265;28;19944;-84
2023/02/10 13:05:07;;;;;;;;;;;;;;;;;;5037183;28;19924;-84
2023/02/10 13:07:32;;;;;;;;;;;;;;;;;;5045340;28;19928;-83
2023/02/10 13:10:06;;;;;;;;;;;;;;;5.02;100.00;67333.50;5045321;28;19962;-84
2023/02/10 13:12:34;;;;;;;;;;;;;;;5.11;100.00;67343.09;5047999;28;19928;-84
2023/02/10 13:15:06;;;;;;;;;;;;;;;5.17;100.00;67344.59;5044101;28;19932;-84
2023/02/10 13:17:31;;;;;;;;;;;;;;;;;;5049357;28;20404;-84
2023/02/10 13:19:56;;;;;;;;;;;;;;;;;;5048781;28;19979;-84
2023/02/10 13:22:31;;;;;;;;;;;;;;;5.35;100.00;67370.22;5041805;28;20271;-82
2023/02/10 13:25:12;;;;;;;;;;;;;;;5.26;100.00;67364.75;5043014;28;19924;-84